Time;durP1;ratioP1;P1;durP2;ratioP2;P2;SDS_P1;SDS_P2;PMS_P1;PMS_P2;Temp;Humidity;BMP_temperature;BMP_pressure;BME280_temperature;BME280_humidity;BME280_pressure;Samples;Min_cycle;Max_cycle;Signal;HPM_P1;HPM_P2
2023/12/05 00:01:18;;;;;;;16.95;11.32;;;;;;;;;;4976135;28;20039;-80
2023/12/05 00:03:43;;;;;;;17.67;10.63;;;;;;;;;;4987466;28;20055;-79
2023/12/05 00:06:09;;;;;;;17.45;10.65;;;;;;;;;;4979395;28;20114;-79
2023/12/05 00:08:34;;;;;;;18.67;10.82;;;;;;;;;;4990874;28;20504;-79
2023/12/05 00:11:02;;;;;;;17.20;10.70;;;;;;;;;;4962445;28;20031;-79
2023/12/05 00:13:27;;;;;;;18.02;10.70;;;;;;;;;;4955417;28;20034;-79
2023/12/05 00:15:52;;;;;;;15.68;9.75;;;;;;;;;;4989005;28;20108;-79
2023/12/05 00:18:17;;;;;;;17.45;10.48;;;;;;;;;;4991453;28;20065;-80
2023/12/05 00:20:42;;;;;;;19.33;11.50;;;;;;;;;;4982497;28;20025;-80
2023/12/05 00:23:07;;;;;;;17.52;11.02;;;;;;;;;;4958333;28;20582;-80
2023/12/05 00:25:33;;;;;;;20.55;12.02;;;;;;;;;;4970365;28;20080;-80
2023/12/05 00:27:58;;;;;;;20.20;12.00;;;;;;;;;;4947935;28;20055;-80
2023/12/05 00:30:23;;;;;;;17.85;11.00;;;;;;;;;;5015712;28;20066;-80
2023/12/05 00:32:48;;;;;;;20.25;12.65;;;;;;;;;;4975920;28;20531;-79
2023/12/05 00:35:16;;;;;;;15.23;9.77;;;;;;;;;;4977426;28;20053;-79
2023/12/05 00:37:41;;;;;;;18.23;11.15;;;;;;;;;;4968459;28;20561;-79
2023/12/05 00:40:06;;;;;;;17.98;11.50;;;;;;;;;;4958154;28;20031;-80
2023/12/05 00:42:31;;;;;;;16.23;10.85;;;;;;;;;;4968605;28;20035;-79
2023/12/05 00:44:57;;;;;;;19.95;12.32;;;;;;;;;;4988046;28;20557;-79
2023/12/05 00:47:22;;;;;;;19.17;11.52;;;;;;;;;;4990969;28;20043;-79
2023/12/05 00:49:47;;;;;;;16.55;10.95;;;;;;;;;;4968615;28;20035;-80
2023/12/05 00:52:12;;;;;;;17.77;10.77;;;;;;;;;;4951598;28;20353;-79
2023/12/05 00:54:37;;;;;;;19.13;11.27;;;;;;;;;;4956910;28;20106;-80
2023/12/05 00:57:03;;;;;;;22.67;12.50;;;;;;;;;;4968980;28;20699;-80
2023/12/05 00:59:28;;;;;;;18.98;12.15;;;;;;;;;;5002481;28;20087;-79
2023/12/05 01:01:53;;;;;;;18.02;12.00;;;;;;;;;;4975806;28;20560;-80
2023/12/05 01:04:18;;;;;;;19.30;12.25;;;;;;;;;;4980385;28;20035;-80
2023/12/05 01:06:43;;;;;;;19.45;11.75;;;;;;;;;;4963406;28;20035;-80
2023/12/05 01:09:10;;;;;;;19.35;12.18;;;;;;;;;;4956258;28;20123;-79
2023/12/05 01:11:35;;;;;;;23.48;12.70;;;;;;;;;;4982093;28;20012;-80
2023/12/05 01:14:00;;;;;;;19.95;12.07;;;;;;;;;;4975717;28;20035;-80
2023/12/05 01:16:25;;;;;;;19.85;11.95;;;;;;;;;;4989352;28;20079;-80
2023/12/05 01:18:51;;;;;;;20.58;11.88;;;;;;;;;;4970089;28;20028;-80
2023/12/05 01:21:16;;;;;;;19.52;11.90;;;;;;;;;;4962822;28;20040;-79
2023/12/05 01:23:41;;;;;;;17.95;11.30;;;;;;;;;;4955234;28;20027;-80
2023/12/05 01:26:06;;;;;;;18.02;11.65;;;;;;;;;;4986951;28;20067;-79
2023/12/05 01:28:32;;;;;;;20.30;13.93;;;;;;;;;;4985962;28;20468;-80
2023/12/05 01:30:57;;;;;;;20.10;12.80;;;;;;;;;;4973157;28;20055;-79
2023/12/05 01:33:22;;;;;;;20.23;11.95;;;;;;;;;;4968680;28;20090;-78
2023/12/05 01:35:47;;;;;;;22.56;13.02;;;;;;;;;;4955533;28;20035;-80
2023/12/05 01:38:12;;;;;;;18.48;11.23;;;;;;;;;;4948122;28;20415;-79
2023/12/05 01:40:37;;;;;;;19.08;12.05;;;;;;;;;;4994831;28;20033;-79
2023/12/05 01:43:03;;;;;;;21.85;14.13;;;;;;;;;;4973104;28;20043;-79
2023/12/05 01:45:28;;;;;;;21.08;12.77;;;;;;;;;;4981162;28;20031;-80
2023/12/05 01:47:53;;;;;;;20.17;12.15;;;;;;;;;;4961374;28;20023;-79
2023/12/05 01:50:22;;;;;;;21.63;13.63;;;;;;;;;;4954043;28;20028;-79
2023/12/05 01:52:49;;;;;;;19.45;11.73;;;;;;;;;;4969276;28;20108;-79
2023/12/05 01:55:15;;;;;;;19.10;12.40;;;;;;;;;;4988200;28;20038;-79
2023/12/05 01:57:40;;;;;;;20.98;12.18;;;;;;;;;;4987998;28;20041;-79
2023/12/05 02:00:06;;;;;;;19.15;12.30;;;;;;;;;;4965655;28;20114;-79
2023/12/05 02:02:38;;;;;;;18.45;11.57;;;;;;;;;;4964329;28;20038;-79
2023/12/05 02:05:03;;;;;;;21.42;11.90;;;;;;;;;;4949439;28;20492;-79
2023/12/05 02:07:29;;;;;;;18.20;11.43;;;;;;;;;;4982044;28;20038;-78
2023/12/05 02:09:55;;;;;;;18.17;12.02;;;;;;;;;;4982482;28;20038;-79
2023/12/05 02:12:20;;;;;;;18.85;11.93;;;;;;;;;;4981302;28;20036;-79
2023/12/05 02:14:46;;;;;;;20.70;12.55;;;;;;;;;;4969718;28;20028;-79
2023/12/05 02:17:23;;;;;;;22.10;12.70;;;;;;;;;;4958540;28;20492;-79
2023/12/05 02:19:48;;;;;;;23.55;13.82;;;;;;;;;;4974939;28;20028;-79
2023/12/05 02:22:32;;;;;;;21.62;12.62;;;;;;;;;;4960403;28;20031;-79
2023/12/05 02:25:16;;;;;;;22.38;13.73;;;;;;;;;;4982482;28;20027;-79
2023/12/05 02:27:41;;;;;;;19.83;12.18;;;;;;;;;;4958001;28;20027;-79
2023/12/05 02:30:08;;;;;;;20.70;13.02;;;;;;;;;;4957602;28;20574;-78
2023/12/05 02:32:33;;;;;;;19.48;11.82;;;;;;;;;;4965383;28;20023;-79
2023/12/05 02:34:59;;;;;;;21.85;12.30;;;;;;;;;;4993963;28;20046;-79
2023/12/05 02:37:29;;;;;;;17.58;11.23;;;;;;;;;;4999648;28;20035;-79
2023/12/05 02:40:00;;;;;;;19.73;11.40;;;;;;;;;;4978439;28;20416;-79
2023/12/05 02:42:27;;;;;;;16.75;10.70;;;;;;;;;;4980967;28;20430;-79
2023/12/05 02:44:52;;;;;;;17.45;10.85;;;;;;;;;;4962466;28;20499;-79
2023/12/05 02:47:19;;;;;;;16.65;10.90;;;;;;;;;;4955224;28;20040;-80
2023/12/05 02:49:45;;;;;;;16.25;10.20;;;;;;;;;;5005398;28;20025;-81
2023/12/05 02:52:10;;;;;;;16.80;10.27;;;;;;;;;;4981232;28;20027;-81
2023/12/05 02:54:36;;;;;;;18.95;11.25;;;;;;;;;;4972298;28;20508;-81
2023/12/05 02:57:01;;;;;;;17.60;10.75;;;;;;;;;;4965344;28;20039;-81
2023/12/05 02:59:26;;;;;;;16.52;10.65;;;;;;;;;;4962940;28;20035;-80
2023/12/05 03:01:51;;;;;;;14.40;9.57;;;;;;;;;;4968199;28;20038;-80
2023/12/05 03:04:17;;;;;;;16.55;10.32;;;;;;;;;;4997412;28;20043;-80
2023/12/05 03:06:43;;;;;;;15.68;10.07;;;;;;;;;;5003588;28;20080;-80
2023/12/05 03:09:08;;;;;;;16.17;10.57;;;;;;;;;;4974247;28;20074;-80
2023/12/05 03:11:33;;;;;;;16.88;11.18;;;;;;;;;;4971615;28;20421;-80
2023/12/05 03:13:59;;;;;;;15.80;10.35;;;;;;;;;;4959046;28;20111;-80
2023/12/05 03:16:24;;;;;;;17.13;10.55;;;;;;;;;;4982971;28;20488;-80
2023/12/05 03:18:49;;;;;;;16.63;10.80;;;;;;;;;;4989590;28;20029;-80
2023/12/05 03:21:18;;;;;;;18.70;10.27;;;;;;;;;;4983909;28;20035;-80
2023/12/05 03:23:43;;;;;;;18.30;11.68;;;;;;;;;;4977035;28;20509;-80
2023/12/05 03:26:15;;;;;;;17.23;10.45;;;;;;;;;;4954743;28;20031;-80
2023/12/05 03:28:40;;;;;;;20.23;11.80;;;;;;;;;;4953826;28;20063;-79
2023/12/05 03:31:06;;;;;;;17.00;10.98;;;;;;;;;;4991044;28;20047;-80
2023/12/05 03:33:31;;;;;;;14.70;8.73;;;;;;;;;;4998500;28;20037;-80
2023/12/05 03:35:56;;;;;;;18.27;10.77;;;;;;;;;;4980130;28;20154;-79
2023/12/05 03:38:21;;;;;;;16.08;9.73;;;;;;;;;;4974434;28;20027;-80
2023/12/05 03:40:46;;;;;;;15.18;9.15;;;;;;;;;;4964782;28;20027;-80
2023/12/05 03:43:11;;;;;;;16.58;9.80;;;;;;;;;;4956255;28;20066;-79
2023/12/05 03:45:37;;;;;;;15.20;9.00;;;;;;;;;;4991880;28;20029;-80
2023/12/05 03:48:02;;;;;;;15.52;9.02;;;;;;;;;;4984198;28;20034;-79
2023/12/05 03:50:27;;;;;;;13.10;8.88;;;;;;;;;;4984798;28;20103;-80
2023/12/05 03:52:52;;;;;;;16.00;9.90;;;;;;;;;;4970068;28;20031;-79
2023/12/05 03:55:17;;;;;;;14.45;9.00;;;;;;;;;;4959367;28;20118;-80
2023/12/05 03:57:43;;;;;;;13.88;8.85;;;;;;;;;;4972545;28;20029;-80
2023/12/05 04:00:10;;;;;;;14.43;8.65;;;;;;;;;;4957527;28;20484;-79
2023/12/05 04:02:37;;;;;;;13.93;8.93;;;;;;;;;;5001110;28;20033;-80
2023/12/05 04:05:03;;;;;;;15.02;9.50;;;;;;;;;;4974829;28;20045;-79
2023/12/05 04:07:28;;;;;;;16.27;10.05;;;;;;;;;;4953889;28;20031;-80
2023/12/05 04:09:53;;;;;;;16.48;10.48;;;;;;;;;;4958180;28;20034;-80
2023/12/05 04:12:18;;;;;;;14.90;9.40;;;;;;;;;;4977950;28;20039;-80
2023/12/05 04:14:43;;;;;;;15.38;8.82;;;;;;;;;;5001267;28;20031;-80
2023/12/05 04:17:09;;;;;;;14.00;8.63;;;;;;;;;;4980617;28;20110;-80
2023/12/05 04:19:34;;;;;;;12.90;8.48;;;;;;;;;;4980716;28;20025;-80
2023/12/05 04:21:59;;;;;;;16.17;9.02;;;;;;;;;;4962698;28;20039;-80
2023/12/05 04:24:24;;;;;;;14.23;8.77;;;;;;;;;;4958014;28;20055;-80
2023/12/05 04:26:49;;;;;;;13.65;8.65;;;;;;;;;;4972655;28;20039;-81
2023/12/05 04:29:14;;;;;;;15.32;9.27;;;;;;;;;;4958881;28;20028;-80
2023/12/05 04:31:40;;;;;;;14.20;8.38;;;;;;;;;;4989503;28;20474;-80
2023/12/05 04:34:05;;;;;;;14.13;8.90;;;;;;;;;;4962614;28;20031;-80
2023/12/05 04:36:30;;;;;;;14.60;9.23;;;;;;;;;;4952003;28;20036;-80
2023/12/05 04:38:55;;;;;;;15.35;7.95;;;;;;;;;;4980449;28;20025;-80
2023/12/05 04:41:20;;;;;;;15.55;9.95;;;;;;;;;;4987259;28;20110;-80
2023/12/05 04:43:45;;;;;;;14.23;9.50;;;;;;;;;;4995674;28;20021;-81
2023/12/05 04:46:11;;;;;;;12.85;8.07;;;;;;;;;;4976202;28;20487;-81
2023/12/05 04:48:36;;;;;;;18.98;10.13;;;;;;;;;;4975567;28;20068;-80
2023/12/05 04:51:01;;;;;;;13.85;8.90;;;;;;;;;;4964105;28;20050;-79
2023/12/05 04:53:26;;;;;;;13.18;7.97;;;;;;;;;;4988598;28;20031;-82
2023/12/05 04:55:51;;;;;;;16.05;9.38;;;;;;;;;;5002117;28;20036;-81
2023/12/05 04:58:16;;;;;;;15.82;8.98;;;;;;;;;;4968101;28;20039;-83
2023/12/05 05:00:42;;;;;;;15.55;9.63;;;;;;;;;;4968463;28;20066;-82
2023/12/05 05:03:07;;;;;;;16.42;9.38;;;;;;;;;;4969619;28;20049;-81
2023/12/05 05:05:32;;;;;;;17.95;11.73;;;;;;;;;;4961096;28;20066;-82
2023/12/05 05:07:57;;;;;;;15.37;8.83;;;;;;;;;;4968666;28;20031;-81
2023/12/05 05:10:22;;;;;;;17.30;10.20;;;;;;;;;;4963543;28;20042;-82
2023/12/05 05:12:48;;;;;;;17.20;10.27;;;;;;;;;;4978419;28;20118;-81
2023/12/05 05:15:13;;;;;;;16.17;9.23;;;;;;;;;;4983730;28;20027;-81
2023/12/05 05:17:38;;;;;;;14.20;8.83;;;;;;;;;;4952032;28;20066;-80
2023/12/05 05:20:04;;;;;;;15.80;9.32;;;;;;;;;;4946881;28;20088;-80
2023/12/05 05:22:30;;;;;;;16.70;10.13;;;;;;;;;;4960813;28;20028;-81
2023/12/05 05:24:55;;;;;;;17.57;10.63;;;;;;;;;;4957745;28;20492;-80
2023/12/05 05:27:20;;;;;;;16.08;9.63;;;;;;;;;;4970026;28;20046;-81
2023/12/05 05:29:45;;;;;;;16.30;9.83;;;;;;;;;;4948478;28;20446;-81
2023/12/05 05:32:10;;;;;;;16.17;10.67;;;;;;;;;;4955132;28;20033;-80
2023/12/05 05:34:35;;;;;;;19.37;10.33;;;;;;;;;;4963593;28;20051;-79
2023/12/05 05:37:01;;;;;;;15.17;9.53;;;;;;;;;;4988142;28;20062;-80
2023/12/05 05:39:26;;;;;;;18.07;9.97;;;;;;;;;;4985173;28;20566;-80
2023/12/05 05:41:51;;;;;;;14.35;8.70;;;;;;;;;;4972074;28;20039;-80
2023/12/05 05:44:16;;;;;;;15.17;9.37;;;;;;;;;;4969402;28;20038;-80
2023/12/05 05:46:41;;;;;;;16.27;8.97;;;;;;;;;;4963945;28;20035;-81
2023/12/05 05:49:07;;;;;;;15.68;9.48;;;;;;;;;;4948411;28;20032;-79
2023/12/05 05:51:32;;;;;;;18.02;10.35;;;;;;;;;;4963126;28;20047;-81
2023/12/05 05:53:58;;;;;;;17.02;9.48;;;;;;;;;;4949890;28;20113;-81
2023/12/05 05:56:23;;;;;;;17.52;9.68;;;;;;;;;;4959077;28;20040;-81
2023/12/05 05:58:48;;;;;;;14.73;8.32;;;;;;;;;;4963041;28;20036;-81
2023/12/05 06:01:13;;;;;;;15.50;9.60;;;;;;;;;;4950994;28;20385;-81
2023/12/05 06:03:40;;;;;;;17.73;11.05;;;;;;;;;;4955073;28;20707;-81
2023/12/05 06:06:05;;;;;;;20.77;10.40;;;;;;;;;;4967008;28;20047;-81
2023/12/05 06:08:31;;;;;;;17.23;10.10;;;;;;;;;;4981584;28;20035;-81
2023/12/05 06:10:56;;;;;;;26.30;15.13;;;;;;;;;;4957624;28;20028;-80
2023/12/05 06:13:21;;;;;;;27.60;16.38;;;;;;;;;;4957521;28;20031;-81
2023/12/05 06:15:46;;;;;;;25.02;15.77;;;;;;;;;;4949994;28;20539;-81
2023/12/05 06:18:15;;;;;;;18.17;11.38;;;;;;;;;;4981215;28;20039;-81
2023/12/05 06:20:40;;;;;;;16.63;10.05;;;;;;;;;;4975986;28;20419;-81
2023/12/05 06:23:05;;;;;;;15.00;9.20;;;;;;;;;;4970699;28;20066;-81
2023/12/05 06:25:31;;;;;;;14.15;8.73;;;;;;;;;;4965960;28;20028;-81
2023/12/05 06:27:56;;;;;;;16.42;9.85;;;;;;;;;;4951828;28;20038;-81
2023/12/05 06:30:21;;;;;;;15.98;9.73;;;;;;;;;;4950250;28;20035;-81
2023/12/05 06:32:46;;;;;;;14.88;9.13;;;;;;;;;;4997736;28;20405;-81
2023/12/05 06:35:11;;;;;;;15.43;8.43;;;;;;;;;;4960557;28;20134;-81
2023/12/05 06:37:37;;;;;;;15.93;10.05;;;;;;;;;;4946245;28;20039;-81
2023/12/05 06:40:02;;;;;;;15.88;9.63;;;;;;;;;;4944666;28;20043;-81
2023/12/05 06:42:27;;;;;;;15.55;10.02;;;;;;;;;;4953641;28;20413;-81
2023/12/05 06:44:52;;;;;;;16.80;9.93;;;;;;;;;;4945421;28;20034;-80
2023/12/05 06:47:18;;;;;;;14.68;10.02;;;;;;;;;;4969962;28;20039;-81
2023/12/05 06:49:43;;;;;;;16.33;9.02;;;;;;;;;;4989284;28;20452;-81
2023/12/05 06:52:11;;;;;;;15.02;8.77;;;;;;;;;;4953298;28;20036;-81
2023/12/05 06:54:36;;;;;;;14.27;9.05;;;;;;;;;;4957749;28;20032;-81
2023/12/05 06:57:01;;;;;;;15.80;9.45;;;;;;;;;;4951034;28;20034;-81
2023/12/05 06:59:26;;;;;;;18.73;10.82;;;;;;;;;;4986699;28;20043;-81
2023/12/05 07:01:52;;;;;;;15.95;10.23;;;;;;;;;;4965553;28;20635;-81
2023/12/05 07:04:18;;;;;;;16.30;9.85;;;;;;;;;;4976139;28;20042;-81
2023/12/05 07:06:43;;;;;;;17.23;10.85;;;;;;;;;;4971820;28;20032;-81
2023/12/05 07:09:08;;;;;;;14.23;9.52;;;;;;;;;;4956411;28;20039;-81
2023/12/05 07:11:34;;;;;;;13.82;8.63;;;;;;;;;;4966875;28;20038;-81
2023/12/05 07:13:59;;;;;;;15.90;9.70;;;;;;;;;;4987426;28;20049;-81
2023/12/05 07:16:25;;;;;;;15.63;9.57;;;;;;;;;;4952360;28;20038;-81
2023/12/05 07:18:50;;;;;;;15.00;9.55;;;;;;;;;;4962824;28;20168;-82
2023/12/05 07:21:15;;;;;;;16.88;9.60;;;;;;;;;;4960908;28;20039;-80
2023/12/05 07:23:40;;;;;;;16.90;10.25;;;;;;;;;;4961733;28;20043;-81
2023/12/05 07:26:05;;;;;;;16.15;9.10;;;;;;;;;;4968471;28;20043;-81
2023/12/05 07:28:31;;;;;;;22.38;13.27;;;;;;;;;;5000343;28;20118;-81
2023/12/05 07:30:56;;;;;;;16.05;10.48;;;;;;;;;;4982944;28;20031;-81
2023/12/05 07:33:21;;;;;;;16.88;9.98;;;;;;;;;;4969647;28;20042;-81
2023/12/05 07:35:47;;;;;;;16.48;10.02;;;;;;;;;;4947409;28;20027;-81
2023/12/05 07:38:12;;;;;;;17.50;10.52;;;;;;;;;;4957884;28;20465;-81
2023/12/05 07:40:37;;;;;;;17.15;9.82;;;;;;;;;;4967427;28;20060;-81
2023/12/05 07:43:02;;;;;;;18.10;10.80;;;;;;;;;;4987522;28;20031;-81
2023/12/05 07:45:27;;;;;;;17.63;10.90;;;;;;;;;;4982494;28;20046;-80
2023/12/05 07:47:53;;;;;;;15.88;9.82;;;;;;;;;;4968987;28;20035;-81
2023/12/05 07:50:18;;;;;;;15.38;9.18;;;;;;;;;;4974449;28;20400;-81
2023/12/05 07:52:47;;;;;;;18.17;10.63;;;;;;;;;;4950753;28;20074;-81
2023/12/05 07:55:12;;;;;;;17.38;9.90;;;;;;;;;;4944925;28;20070;-81
2023/12/05 07:57:37;;;;;;;16.67;11.40;;;;;;;;;;4945987;28;20077;-81
2023/12/05 08:00:04;;;;;;;17.60;11.65;;;;;;;;;;4959702;28;20209;-81
2023/12/05 08:02:37;;;;;;;17.85;10.73;;;;;;;;;;4963754;28;20455;-81
2023/12/05 08:05:03;;;;;;;18.02;10.82;;;;;;;;;;4950522;28;20181;-81
2023/12/05 08:07:28;;;;;;;17.58;10.45;;;;;;;;;;4944398;28;20051;-81
2023/12/05 08:09:53;;;;;;;18.15;11.65;;;;;;;;;;4988363;28;20024;-81
2023/12/05 08:12:18;;;;;;;17.05;10.38;;;;;;;;;;4969857;28;20070;-81
2023/12/05 08:14:43;;;;;;;14.93;9.57;;;;;;;;;;4981886;28;20025;-81
2023/12/05 08:17:09;;;;;;;20.60;11.93;;;;;;;;;;4965221;28;20039;-81
2023/12/05 08:19:34;;;;;;;17.38;11.70;;;;;;;;;;4956279;28;20114;-81
2023/12/05 08:21:59;;;;;;;18.13;11.38;;;;;;;;;;4952641;28;20508;-81
2023/12/05 08:24:24;;;;;;;17.35;10.00;;;;;;;;;;4969533;28;20035;-81
2023/12/05 08:26:49;;;;;;;16.90;10.55;;;;;;;;;;4965536;28;20028;-81
2023/12/05 08:29:15;;;;;;;16.70;10.70;;;;;;;;;;4961443;28;20031;-81
2023/12/05 08:31:40;;;;;;;15.80;9.52;;;;;;;;;;4953288;28;20024;-81
2023/12/05 08:34:05;;;;;;;16.33;9.82;;;;;;;;;;4954522;28;20043;-81
2023/12/05 08:36:30;;;;;;;15.77;9.88;;;;;;;;;;4978162;28;20518;-81
2023/12/05 08:38:55;;;;;;;17.02;9.80;;;;;;;;;;4991458;28;20025;-81
2023/12/05 08:41:21;;;;;;;14.15;9.60;;;;;;;;;;4948332;28;20035;-81
2023/12/05 08:43:46;;;;;;;16.27;10.40;;;;;;;;;;4953673;28;20041;-81
2023/12/05 08:46:12;;;;;;;17.88;10.43;;;;;;;;;;4946166;28;20043;-81
2023/12/05 08:48:38;;;;;;;17.45;11.00;;;;;;;;;;4955300;28;20038;-81
2023/12/05 08:51:03;;;;;;;15.38;10.15;;;;;;;;;;4987156;28;20032;-81
2023/12/05 08:53:29;;;;;;;15.20;9.75;;;;;;;;;;4990850;28;20028;-81
2023/12/05 08:55:54;;;;;;;16.05;9.30;;;;;;;;;;4980145;28;20399;-81
2023/12/05 08:58:19;;;;;;;16.92;10.07;;;;;;;;;;4970968;28;20051;-81
2023/12/05 09:00:44;;;;;;;14.10;9.43;;;;;;;;;;4965124;28;20398;-81
2023/12/05 09:03:09;;;;;;;15.23;9.20;;;;;;;;;;4950188;28;20040;-80
2023/12/05 09:05:35;;;;;;;22.33;13.93;;;;;;;;;;5002616;28;20032;-81
2023/12/05 09:08:00;;;;;;;23.13;13.73;;;;;;;;;;4992890;28;20038;-81
2023/12/05 09:10:26;;;;;;;21.40;14.60;;;;;;;;;;4963952;28;20057;-81
2023/12/05 09:12:51;;;;;;;20.63;12.63;;;;;;;;;;4948966;28;20039;-80
2023/12/05 09:15:16;;;;;;;16.30;11.00;;;;;;;;;;4948819;28;20462;-81
2023/12/05 09:17:41;;;;;;;18.25;10.68;;;;;;;;;;4986538;28;20025;-81
2023/12/05 09:20:06;;;;;;;12.75;8.63;;;;;;;;;;4987254;28;20118;-81
2023/12/05 09:22:32;;;;;;;16.27;10.25;;;;;;;;;;4976218;28;20036;-81
2023/12/05 09:24:57;;;;;;;16.02;10.95;;;;;;;;;;4957804;28;20031;-80
2023/12/05 09:27:22;;;;;;;15.35;9.27;;;;;;;;;;4959660;28;20040;-81
2023/12/05 09:29:47;;;;;;;14.05;8.80;;;;;;;;;;4957445;28;20036;-81
2023/12/05 09:32:13;;;;;;;15.50;9.88;;;;;;;;;;4987381;28;20399;-81
2023/12/05 09:34:38;;;;;;;20.95;13.25;;;;;;;;;;4996910;28;20835;-81
2023/12/05 09:37:03;;;;;;;15.80;10.30;;;;;;;;;;4974094;28;20138;-80
2023/12/05 09:39:31;;;;;;;15.68;10.35;;;;;;;;;;4953749;28;20036;-81
2023/12/05 09:41:57;;;;;;;15.35;10.15;;;;;;;;;;4947312;28;20035;-81
2023/12/05 09:44:23;;;;;;;13.93;8.52;;;;;;;;;;4945699;28;20036;-80
2023/12/05 09:46:56;;;;;;;14.82;9.05;;;;;;;;;;4947275;28;20038;-81
2023/12/05 09:49:25;;;;;;;17.48;10.00;;;;;;;;;;4951551;28;20035;-81
2023/12/05 09:51:50;;;;;;;13.73;8.82;;;;;;;;;;4976664;28;20025;-81
2023/12/05 09:54:15;;;;;;;12.45;8.57;;;;;;;;;;4955567;28;20092;-81
2023/12/05 09:56:41;;;;;;;14.32;9.65;;;;;;;;;;4954623;28;20039;-81
2023/12/05 09:59:06;;;;;;;13.40;9.13;;;;;;;;;;4970128;28;20519;-81
2023/12/05 10:01:33;;;;;;;13.15;8.40;;;;;;;;;;4993849;28;20482;-81
2023/12/05 10:04:00;;;;;;;12.57;7.97;;;;;;;;;;4979615;28;20491;-81
2023/12/05 10:06:28;;;;;;;14.63;9.30;;;;;;;;;;4969580;28;20031;-81
2023/12/05 10:08:54;;;;;;;13.90;8.88;;;;;;;;;;4956575;28;20035;-81
2023/12/05 10:11:21;;;;;;;14.95;8.95;;;;;;;;;;4944834;28;20043;-81
2023/12/05 10:13:46;;;;;;;14.85;9.52;;;;;;;;;;4959203;28;20017;-81
2023/12/05 10:16:12;;;;;;;14.80;9.77;;;;;;;;;;4948095;28;20041;-81
2023/12/05 10:18:39;;;;;;;14.95;9.07;;;;;;;;;;4972623;28;20518;-81
2023/12/05 10:21:05;;;;;;;15.60;10.35;;;;;;;;;;4965308;28;20053;-81
2023/12/05 10:23:30;;;;;;;15.00;9.77;;;;;;;;;;4960612;28;20466;-81
2023/12/05 10:25:55;;;;;;;14.90;9.35;;;;;;;;;;4944475;28;20114;-81
2023/12/05 10:28:20;;;;;;;17.05;9.35;;;;;;;;;;4951216;28;20039;-81
2023/12/05 10:30:45;;;;;;;14.43;9.73;;;;;;;;;;4978387;28;20047;-81
2023/12/05 10:33:17;;;;;;;15.82;10.68;;;;;;;;;;4947189;28;20034;-81
2023/12/05 10:35:44;;;;;;;15.55;9.90;;;;;;;;;;4960160;28;20025;-80
2023/12/05 10:38:09;;;;;;;18.23;12.25;;;;;;;;;;4955944;28;20115;-81
2023/12/05 10:40:51;;;;;;;17.45;11.57;;;;;;;;;;4965032;28;20498;-81
2023/12/05 10:43:20;;;;;;;18.60;10.75;;;;;;;;;;4984099;28;20033;-81
2023/12/05 10:45:45;;;;;;;17.08;12.02;;;;;;;;;;4973765;28;20029;-81
2023/12/05 10:48:12;;;;;;;16.17;10.25;;;;;;;;;;4967909;28;20392;-81
2023/12/05 10:50:38;;;;;;;15.85;10.93;;;;;;;;;;4958952;28;20028;-81
2023/12/05 10:53:04;;;;;;;15.05;10.07;;;;;;;;;;4951159;28;20475;-81
2023/12/05 10:55:29;;;;;;;15.50;10.43;;;;;;;;;;4979705;28;20031;-81
2023/12/05 10:57:54;;;;;;;15.40;9.88;;;;;;;;;;4996478;28;20661;-81
2023/12/05 11:00:20;;;;;;;23.10;14.32;;;;;;;;;;4983629;28;20039;-81
2023/12/05 11:02:48;;;;;;;19.20;11.95;;;;;;;;;;4960569;28;20093;-80
2023/12/05 11:05:14;;;;;;;15.57;10.65;;;;;;;;;;4958819;28;20043;-81
2023/12/05 11:07:39;;;;;;;18.27;11.68;;;;;;;;;;4956416;28;20407;-80
2023/12/05 11:10:05;;;;;;;20.17;11.75;;;;;;;;;;4970516;28;20093;-80
2023/12/05 11:12:31;;;;;;;18.45;11.43;;;;;;;;;;4954003;28;20042;-80
2023/12/05 11:14:57;;;;;;;21.45;13.70;;;;;;;;;;4956065;28;20028;-79
2023/12/05 11:17:26;;;;;;;22.40;14.02;;;;;;;;;;4957933;28;20046;-81
2023/12/05 11:19:54;;;;;;;19.75;11.88;;;;;;;;;;4968327;28;20063;-80
2023/12/05 11:22:34;;;;;;;18.52;12.68;;;;;;;;;;4957387;28;20035;-80
2023/12/05 11:25:09;;;;;;;15.55;10.38;;;;;;;;;;4965861;28;20031;-80
2023/12/05 11:28:00;;;;;;;17.45;11.07;;;;;;;;;;4973698;28;20027;-80
2023/12/05 11:30:28;;;;;;;15.70;11.23;;;;;;;;;;4972634;28;20023;-81
2023/12/05 11:33:02;;;;;;;20.77;13.63;;;;;;;;;;4966715;28;20479;-81
2023/12/05 11:35:47;;;;;;;20.42;12.70;;;;;;;;;;4952775;28;20177;-81
2023/12/05 11:38:13;;;;;;;17.38;11.43;;;;;;;;;;4985827;28;20415;-80
2023/12/05 11:40:39;;;;;;;16.58;9.13;;;;;;;;;;4965727;28;20043;-81
2023/12/05 11:43:09;;;;;;;17.65;10.13;;;;;;;;;;4963160;28;20096;-80
2023/12/05 11:45:39;;;;;;;15.65;9.77;;;;;;;;;;4944068;28;20046;-80
2023/12/05 11:48:04;;;;;;;17.70;9.55;;;;;;;;;;4953623;28;20039;-79
2023/12/05 11:50:42;;;;;;;16.23;10.23;;;;;;;;;;4955384;28;20042;-80
2023/12/05 11:53:09;;;;;;;16.55;10.10;;;;;;;;;;4950524;28;20032;-82
2023/12/05 11:55:35;;;;;;;15.75;10.52;;;;;;;;;;4953347;28;20024;-81
2023/12/05 11:58:00;;;;;;;16.10;9.90;;;;;;;;;;4974933;28;20043;-80
2023/12/05 12:00:26;;;;;;;16.70;10.55;;;;;;;;;;4956928;28;20575;-79
2023/12/05 12:02:56;;;;;;;16.77;11.07;;;;;;;;;;4947800;28;20032;-80
2023/12/05 12:05:21;;;;;;;19.63;12.00;;;;;;;;;;4948981;28;20031;-80
2023/12/05 12:07:49;;;;;;;18.98;12.45;;;;;;;;;;4965909;28;20496;-81
2023/12/05 12:10:17;;;;;;;19.58;11.40;;;;;;;;;;4964060;28;20035;-80
2023/12/05 12:12:44;;;;;;;17.15;11.57;;;;;;;;;;4974162;28;20025;-81
2023/12/05 12:15:10;;;;;;;15.65;9.98;;;;;;;;;;4961657;28;20114;-80
2023/12/05 12:17:38;;;;;;;14.05;9.73;;;;;;;;;;4959295;28;20098;-81
2023/12/05 12:20:04;;;;;;;15.60;9.43;;;;;;;;;;4958968;28;20047;-81
2023/12/05 12:22:29;;;;;;;14.88;9.40;;;;;;;;;;4958490;28;20027;-80
2023/12/05 12:25:05;;;;;;;17.67;11.63;;;;;;;;;;4977181;28;20394;-81
2023/12/05 12:27:34;;;;;;;15.80;10.57;;;;;;;;;;4971648;28;20035;-80
2023/12/05 12:29:59;;;;;;;16.15;9.93;;;;;;;;;;4973353;28;20106;-80
2023/12/05 12:32:24;;;;;;;15.63;10.70;;;;;;;;;;4979007;28;20498;-81
2023/12/05 12:34:49;;;;;;;16.38;10.80;;;;;;;;;;4953998;28;20031;-80
2023/12/05 12:37:15;;;;;;;18.45;11.13;;;;;;;;;;4967655;28;20039;-81
2023/12/05 12:39:43;;;;;;;16.27;10.50;;;;;;;;;;4964289;28;20035;-80
2023/12/05 12:42:08;;;;;;;16.48;11.02;;;;;;;;;;4964291;28;20053;-80
2023/12/05 12:44:34;;;;;;;17.55;10.32;;;;;;;;;;4959928;28;20507;-80
2023/12/05 12:46:59;;;;;;;15.50;9.45;;;;;;;;;;4997307;28;20446;-80
2023/12/05 12:49:25;;;;;;;16.08;10.60;;;;;;;;;;4974721;28;20046;-80
2023/12/05 12:51:52;;;;;;;14.30;9.40;;;;;;;;;;4989938;28;20096;-80
2023/12/05 12:54:17;;;;;;;17.20;10.75;;;;;;;;;;4972236;28;20036;-80
2023/12/05 12:56:42;;;;;;;16.00;10.23;;;;;;;;;;4965410;28;20118;-81
2023/12/05 12:59:08;;;;;;;17.92;11.55;;;;;;;;;;4952063;28;20074;-81
2023/12/05 13:01:38;;;;;;;15.38;10.30;;;;;;;;;;4957471;28;20412;-81
2023/12/05 13:04:03;;;;;;;13.70;9.45;;;;;;;;;;4979269;28;20047;-81
2023/12/05 13:06:34;;;;;;;15.40;9.93;;;;;;;;;;4978998;28;20027;-81
2023/12/05 13:09:00;;;;;;;14.77;9.63;;;;;;;;;;4959337;28;20118;-81
2023/12/05 13:11:25;;;;;;;15.90;9.35;;;;;;;;;;4952763;28;20035;-81
2023/12/05 13:13:50;;;;;;;14.82;9.45;;;;;;;;;;4948536;28;20020;-81
2023/12/05 13:16:17;;;;;;;15.93;10.40;;;;;;;;;;4982879;28;20511;-81
2023/12/05 13:18:45;;;;;;;17.42;10.60;;;;;;;;;;4979364;28;20412;-81
2023/12/05 13:21:10;;;;;;;15.25;9.45;;;;;;;;;;4968282;28;20039;-81
2023/12/05 13:23:35;;;;;;;15.18;9.35;;;;;;;;;;4967803;28;20042;-81
2023/12/05 13:26:00;;;;;;;16.00;8.98;;;;;;;;;;4948390;28;20038;-80
2023/12/05 13:28:26;;;;;;;14.63;9.68;;;;;;;;;;4953121;28;20070;-81
2023/12/05 13:30:51;;;;;;;14.40;9.20;;;;;;;;;;4983086;28;20079;-81
2023/12/05 13:33:16;;;;;;;18.35;11.60;;;;;;;;;;4975999;28;20038;-81
2023/12/05 13:35:42;;;;;;;17.50;10.38;;;;;;;;;;4975100;28;20039;-82
2023/12/05 13:38:07;;;;;;;16.60;10.65;;;;;;;;;;4957338;28;20039;-81
2023/12/05 13:40:32;;;;;;;16.30;10.05;;;;;;;;;;4951889;28;20027;-81
2023/12/05 13:42:57;;;;;;;16.02;10.85;;;;;;;;;;4980848;28;20044;-82
2023/12/05 13:45:23;;;;;;;17.77;10.73;;;;;;;;;;4980858;28;20038;-81
2023/12/05 13:47:48;;;;;;;17.73;11.00;;;;;;;;;;4990402;28;20025;-81
2023/12/05 13:50:13;;;;;;;17.30;10.80;;;;;;;;;;4965364;28;20120;-82
2023/12/05 13:52:38;;;;;;;17.42;11.52;;;;;;;;;;4970415;28;20043;-81
2023/12/05 13:55:04;;;;;;;19.15;11.75;;;;;;;;;;4956361;28;20035;-82
2023/12/05 13:57:29;;;;;;;16.60;10.23;;;;;;;;;;4946683;28;20040;-81
2023/12/05 13:59:54;;;;;;;17.00;10.75;;;;;;;;;;4955044;28;20043;-81
2023/12/05 14:02:20;;;;;;;16.95;10.55;;;;;;;;;;4952195;28;20114;-81
2023/12/05 14:04:45;;;;;;;17.60;11.45;;;;;;;;;;4964923;28;20079;-81
2023/12/05 14:07:10;;;;;;;18.90;11.75;;;;;;;;;;4954419;28;20027;-81
2023/12/05 14:09:35;;;;;;;18.45;12.55;;;;;;;;;;4970870;28;20165;-81
2023/12/05 14:12:00;;;;;;;26.98;16.58;;;;;;;;;;4957459;28;20062;-82
2023/12/05 14:14:26;;;;;;;30.83;19.63;;;;;;;;;;4950605;28;20035;-81